createdAt,value
2018-10-21T00:00:16.826Z,4.40
2018-10-21T00:02:45.047Z,4.30
2018-10-21T00:05:13.263Z,4.30
2018-10-21T00:07:41.519Z,4.20
2018-10-21T00:10:10.843Z,4.20
2018-10-21T00:12:39.426Z,4.10
2018-10-21T00:15:08.379Z,4.00
2018-10-21T00:17:36.630Z,3.90
2018-10-21T00:20:05.138Z,3.90
2018-10-21T00:22:33.359Z,3.80
2018-10-21T00:25:01.786Z,3.80
2018-10-21T00:27:30.246Z,3.80
2018-10-21T00:29:58.482Z,3.80
2018-10-21T00:32:30.946Z,3.80
2018-10-21T00:34:59.179Z,3.80
2018-10-21T00:37:27.611Z,3.80
2018-10-21T00:39:56.270Z,3.90
2018-10-21T00:42:24.490Z,3.90
2018-10-21T00:44:52.675Z,3.90
2018-10-21T00:47:20.857Z,4.00
2018-10-21T00:49:49.050Z,4.00
2018-10-21T00:52:17.227Z,4.10
2018-10-21T00:54:45.646Z,4.10
2018-10-21T00:57:13.876Z,4.10
2018-10-21T00:59:44.059Z,4.20
2018-10-21T01:02:12.261Z,4.30
2018-10-21T01:04:40.415Z,4.30
2018-10-21T01:07:08.590Z,4.30
2018-10-21T01:09:36.755Z,4.30
2018-10-21T01:12:05.282Z,4.30
2018-10-21T01:14:33.463Z,4.40
2018-10-21T01:17:01.863Z,4.40
2018-10-21T01:19:30.063Z,4.40
2018-10-21T01:21:58.237Z,4.40
2018-10-21T01:24:26.419Z,4.50
2018-10-21T01:26:54.588Z,4.60
2018-10-21T01:29:22.986Z,4.60
2018-10-21T01:31:51.178Z,4.60
2018-10-21T01:34:19.355Z,4.70
2018-10-21T01:36:47.666Z,4.70
2018-10-21T01:39:16.080Z,4.70
2018-10-21T01:41:44.147Z,4.70
2018-10-21T01:44:12.552Z,4.70
2018-10-21T01:46:40.722Z,4.70
2018-10-21T01:49:09.159Z,4.80
2018-10-21T01:51:37.362Z,4.70
2018-10-21T01:54:05.718Z,4.80
2018-10-21T01:56:33.886Z,4.80
2018-10-21T01:59:02.050Z,4.80
2018-10-21T02:01:30.226Z,4.80
2018-10-21T02:03:58.397Z,4.90
2018-10-21T02:06:26.603Z,4.90
2018-10-21T02:08:54.826Z,4.90
2018-10-21T02:11:22.945Z,4.90
2018-10-21T02:13:51.126Z,4.90
2018-10-21T02:16:19.522Z,4.90
2018-10-21T02:18:47.726Z,4.90
2018-10-21T02:21:15.988Z,4.90
2018-10-21T02:23:44.321Z,4.90
2018-10-21T02:26:12.556Z,4.90
2018-10-21T02:28:40.943Z,4.90
2018-10-21T02:31:09.139Z,4.90
2018-10-21T02:33:37.457Z,4.90
2018-10-21T02:36:05.742Z,4.90
2018-10-21T02:38:33.911Z,4.90
2018-10-21T02:41:24.050Z,4.90
2018-10-21T02:43:52.438Z,4.90
2018-10-21T02:46:21.834Z,4.90
2018-10-21T02:48:50.697Z,4.90
2018-10-21T02:51:18.970Z,4.90
2018-10-21T02:53:47.174Z,4.90
2018-10-21T02:56:15.398Z,4.90
2018-10-21T02:58:43.626Z,4.90
2018-10-21T03:01:11.865Z,4.90
2018-10-21T03:03:40.863Z,5.00
2018-10-21T03:06:09.200Z,5.00
2018-10-21T03:08:38.115Z,5.00
2018-10-21T03:11:06.467Z,5.10
2018-10-21T03:13:34.943Z,5.00
2018-10-21T03:16:03.811Z,5.10
2018-10-21T03:18:32.322Z,5.10
2018-10-21T03:21:01.323Z,5.10
2018-10-21T03:23:29.682Z,5.20
2018-10-21T03:25:58.128Z,5.20
2018-10-21T03:28:26.584Z,5.20
2018-10-21T03:30:54.857Z,5.20
2018-10-21T03:33:23.434Z,5.20
2018-10-21T03:35:51.618Z,5.20
2018-10-21T03:38:19.834Z,5.30
2018-10-21T03:40:48.262Z,5.20
2018-10-21T03:43:16.502Z,5.30
2018-10-21T03:45:44.694Z,5.20
2018-10-21T03:48:12.855Z,5.30
2018-10-21T03:50:41.054Z,5.30
2018-10-21T03:53:09.222Z,5.30
2018-10-21T03:55:39.356Z,5.30
2018-10-21T03:58:07.649Z,5.30
2018-10-21T04:00:36.491Z,5.30
2018-10-21T04:03:05.098Z,5.30
2018-10-21T04:05:33.785Z,5.30
2018-10-21T04:08:02.048Z,5.30
2018-10-21T04:10:30.263Z,5.40
2018-10-21T04:12:58.836Z,5.40
2018-10-21T04:15:27.321Z,5.40
2018-10-21T04:17:55.977Z,5.30
2018-10-21T04:20:24.409Z,5.30
2018-10-21T04:22:54.714Z,5.30
2018-10-21T04:25:24.083Z,5.30
2018-10-21T04:27:53.399Z,5.30
2018-10-21T04:30:22.642Z,5.30
2018-10-21T04:33:55.669Z,5.30
2018-10-21T04:36:25.503Z,5.30
2018-10-21T04:40:09.607Z,5.30
2018-10-21T04:42:37.868Z,5.30
2018-10-21T04:45:06.657Z,5.30
2018-10-21T04:47:34.827Z,5.30
2018-10-21T04:50:03.042Z,5.30
2018-10-21T04:52:32.047Z,5.40
2018-10-21T04:55:10.251Z,5.30
2018-10-21T04:57:39.611Z,5.40
2018-10-21T05:00:16.642Z,5.40
2018-10-21T05:02:44.840Z,5.40
2018-10-21T05:05:14.007Z,5.40
2018-10-21T05:07:42.373Z,5.40
2018-10-21T05:10:28.175Z,5.40
2018-10-21T05:12:56.451Z,5.40
2018-10-21T05:15:25.482Z,5.40
2018-10-21T05:17:53.856Z,5.40
2018-10-21T05:20:22.095Z,5.50
2018-10-21T05:22:50.497Z,5.40
2018-10-21T05:25:18.666Z,5.40
2018-10-21T05:27:46.866Z,5.40
2018-10-21T05:30:15.410Z,5.40
2018-10-21T05:32:43.755Z,5.40
2018-10-21T05:35:13.699Z,5.40
2018-10-21T05:37:41.923Z,5.40
2018-10-21T05:40:12.237Z,5.40
2018-10-21T05:42:40.598Z,5.40
2018-10-21T05:45:08.953Z,5.40
2018-10-21T05:47:38.158Z,5.40
2018-10-21T05:50:07.536Z,5.40
2018-10-21T05:52:35.795Z,5.30
2018-10-21T05:55:04.038Z,5.30
2018-10-21T05:57:32.488Z,5.30
2018-10-21T06:00:00.687Z,5.40
2018-10-21T06:02:28.893Z,5.40
2018-10-21T06:04:57.123Z,5.40
2018-10-21T06:07:25.326Z,5.40
2018-10-21T06:09:53.581Z,5.40
2018-10-21T06:12:21.805Z,5.30
2018-10-21T06:14:50.855Z,5.30
2018-10-21T06:17:26.747Z,5.30
2018-10-21T06:19:57.970Z,5.40
2018-10-21T06:22:26.446Z,5.40
2018-10-21T06:24:54.664Z,5.50
2018-10-21T06:27:22.879Z,5.60
2018-10-21T06:29:51.346Z,5.70
2018-10-21T06:32:19.999Z,5.90
2018-10-21T06:34:48.242Z,6.00
2018-10-21T06:37:16.685Z,6.20
2018-10-21T06:39:44.891Z,6.30
2018-10-21T06:42:13.103Z,6.50
2018-10-21T06:44:41.326Z,6.60
2018-10-21T06:47:09.543Z,6.80
2018-10-21T06:49:37.779Z,6.90
2018-10-21T06:52:06.117Z,6.90
2018-10-21T06:54:34.317Z,6.90
2018-10-21T06:57:02.641Z,6.90
2018-10-21T06:59:30.774Z,6.90
2018-10-21T07:01:59.015Z,6.90
2018-10-21T07:04:27.487Z,6.90
2018-10-21T07:06:56.118Z,7.00
2018-10-21T07:09:24.506Z,7.00
2018-10-21T07:11:52.722Z,7.10
2018-10-21T07:14:20.958Z,7.10
2018-10-21T07:16:49.388Z,7.20
2018-10-21T07:19:17.561Z,7.30
2018-10-21T07:21:45.762Z,7.30
2018-10-21T07:24:14.954Z,7.40
2018-10-21T07:26:43.455Z,7.50
2018-10-21T07:29:11.747Z,7.60
2018-10-21T07:31:40.171Z,7.80
2018-10-21T07:34:08.421Z,7.90
2018-10-21T07:36:36.718Z,8.00
2018-10-21T07:39:07.703Z,8.10
2018-10-21T07:41:36.443Z,8.20
2018-10-21T07:44:04.912Z,8.20
2018-10-21T07:46:33.415Z,8.30
2018-10-21T07:49:01.885Z,8.30
2018-10-21T07:51:30.461Z,8.40
2018-10-21T07:53:58.890Z,8.50
2018-10-21T07:56:27.098Z,8.60
2018-10-21T07:58:55.294Z,8.70
2018-10-21T08:01:23.502Z,8.80
2018-10-21T08:03:51.724Z,9.00
2018-10-21T08:06:32.922Z,9.10
2018-10-21T08:09:01.129Z,9.20
2018-10-21T08:11:29.314Z,9.40
2018-10-21T08:13:57.523Z,10.10
2018-10-21T08:16:25.695Z,10.90
2018-10-21T08:18:54.055Z,11.60
2018-10-21T08:21:22.345Z,11.90
2018-10-21T08:23:50.467Z,12.20
2018-10-21T08:26:18.752Z,12.40
2018-10-21T08:28:47.212Z,13.10
2018-10-21T08:31:20.519Z,15.30
2018-10-21T08:33:48.762Z,15.70
2018-10-21T08:36:17.027Z,16.80
2018-10-21T08:38:45.197Z,17.50
2018-10-21T08:41:13.962Z,18.80
2018-10-21T08:43:42.185Z,19.70
2018-10-21T08:46:10.466Z,20.10
2018-10-21T08:48:38.606Z,20.30
2018-10-21T08:51:06.827Z,21.00
2018-10-21T08:53:35.042Z,21.50
2018-10-21T08:56:03.246Z,21.00
2018-10-21T08:58:31.423Z,21.20
2018-10-21T09:00:59.665Z,21.60
2018-10-21T09:03:27.831Z,22.40
2018-10-21T09:05:56.074Z,22.80
2018-10-21T09:08:24.945Z,22.60
2018-10-21T09:10:53.445Z,23.10
2018-10-21T09:13:22.949Z,24.10
2018-10-21T09:15:51.147Z,25.30
2018-10-21T09:18:19.395Z,26.10
2018-10-21T09:20:48.012Z,26.10
2018-10-21T09:23:17.848Z,26.60
2018-10-21T09:25:46.582Z,26.20
2018-10-21T09:28:16.132Z,26.50
2018-10-21T09:30:44.627Z,26.80
2018-10-21T09:41:28.974Z,26.80
2018-10-21T09:43:57.252Z,27.30
2018-10-21T09:46:25.453Z,27.40
2018-10-21T09:48:53.664Z,26.80
2018-10-21T09:51:23.446Z,27.20
2018-10-21T09:53:51.640Z,27.50
2018-10-21T09:56:20.262Z,27.20
2018-10-21T09:58:48.542Z,26.70
2018-10-21T10:01:22.043Z,26.10
2018-10-21T10:03:50.459Z,25.10
2018-10-21T10:06:18.906Z,24.40
2018-10-21T10:08:47.158Z,23.10
2018-10-21T10:11:15.447Z,23.90
2018-10-21T10:13:43.799Z,24.70
2018-10-21T10:16:12.175Z,24.90
2018-10-21T10:18:40.390Z,25.30
2018-10-21T10:21:08.652Z,26.20
2018-10-21T10:23:37.118Z,25.90
2018-10-21T10:26:05.534Z,25.60
2018-10-21T10:28:33.790Z,26.00
2018-10-21T10:31:02.052Z,26.60
2018-10-21T10:33:30.319Z,26.10
2018-10-21T10:35:58.660Z,25.50
2018-10-21T10:38:27.164Z,26.70
2018-10-21T10:40:55.567Z,25.70
2018-10-21T10:43:23.935Z,27.20
2018-10-21T10:45:52.235Z,28.60
2018-10-21T10:48:20.720Z,28.00
2018-10-21T10:50:49.244Z,28.50
2018-10-21T10:53:17.673Z,28.10
2018-10-21T10:55:50.104Z,27.90
2018-10-21T10:58:18.505Z,28.40
2018-10-21T11:00:46.972Z,28.00
2018-10-21T11:03:15.480Z,29.90
2018-10-21T11:05:43.867Z,29.20
2018-10-21T11:08:12.180Z,29.50
2018-10-21T11:10:40.474Z,29.50
2018-10-21T11:13:08.912Z,28.50
2018-10-21T11:15:37.117Z,26.30
2018-10-21T11:18:05.371Z,24.50
2018-10-21T11:20:33.840Z,22.70
2018-10-21T11:23:02.142Z,21.60
2018-10-21T11:25:30.607Z,21.70
2018-10-21T11:27:58.856Z,21.00
2018-10-21T11:30:27.229Z,20.40
2018-10-21T11:32:55.639Z,19.80
2018-10-21T11:35:23.927Z,18.90
2018-10-21T11:37:52.252Z,19.00
2018-10-21T11:40:20.796Z,19.60
2018-10-21T11:42:49.034Z,19.40
2018-10-21T11:45:17.230Z,19.00
2018-10-21T11:47:45.674Z,18.40
2018-10-21T11:50:14.054Z,17.80
2018-10-21T11:52:42.340Z,17.80
2018-10-21T11:55:12.011Z,18.40
2018-10-21T11:57:40.731Z,19.00
2018-10-21T12:00:09.571Z,19.60
2018-10-21T12:02:37.783Z,21.10
2018-10-21T12:05:06.641Z,21.90
2018-10-21T12:07:35.530Z,22.10
2018-10-21T12:10:03.994Z,21.80
2018-10-21T12:12:32.443Z,21.60
2018-10-21T12:15:00.799Z,21.30
2018-10-21T12:17:29.398Z,20.90
2018-10-21T12:19:57.690Z,21.20
2018-10-21T12:22:26.075Z,20.30
2018-10-21T12:24:55.052Z,19.60
2018-10-21T12:27:23.489Z,18.70
2018-10-21T12:29:53.840Z,18.00
2018-10-21T12:32:22.390Z,17.50
2018-10-21T12:34:50.857Z,17.00
2018-10-21T12:37:20.285Z,17.20
2018-10-21T12:39:48.835Z,18.60
2018-10-21T12:42:19.750Z,20.50
2018-10-21T12:44:48.591Z,21.60
2018-10-21T12:47:18.082Z,22.70
2018-10-21T12:49:47.111Z,23.80
2018-10-21T12:52:16.251Z,24.20
2018-10-21T12:54:45.379Z,25.10
2018-10-21T13:02:38.009Z,23.20
2018-10-21T13:13:40.468Z,17.20
2018-10-21T13:16:28.060Z,17.70
2018-10-21T13:19:11.043Z,18.10
2018-10-21T13:21:40.847Z,18.10
2018-10-21T13:29:46.871Z,16.30
2018-10-21T13:32:26.423Z,16.10
2018-10-21T13:34:55.896Z,15.80
2018-10-21T13:37:24.787Z,15.90
2018-10-21T13:39:53.629Z,15.80
2018-10-21T13:42:23.183Z,15.80
2018-10-21T13:44:52.435Z,15.80
2018-10-21T13:47:20.790Z,15.70
2018-10-21T13:49:50.149Z,15.30
2018-10-21T13:52:22.801Z,15.40
2018-10-21T13:54:51.275Z,15.30
2018-10-21T13:57:20.549Z,15.20
2018-10-21T13:59:50.144Z,15.20
2018-10-21T14:02:18.911Z,15.40
2018-10-21T14:04:48.378Z,16.00
2018-10-21T14:07:17.159Z,16.90
2018-10-21T14:09:45.687Z,17.50
2018-10-21T14:12:14.911Z,17.40
2018-10-21T14:14:43.579Z,17.10
2018-10-21T14:17:12.302Z,16.60
2018-10-21T14:19:41.726Z,15.80
2018-10-21T14:22:15.895Z,15.50
2018-10-21T14:24:45.372Z,15.20
2018-10-21T14:27:15.503Z,14.80
2018-10-21T14:29:44.565Z,14.50
2018-10-21T14:32:15.333Z,14.20
2018-10-21T14:48:01.748Z,13.60
2018-10-21T14:50:30.957Z,12.70
2018-10-21T14:53:00.257Z,12.50
2018-10-21T14:55:29.145Z,12.40
2018-10-21T14:57:58.838Z,12.20
2018-10-21T15:00:28.438Z,12.10
2018-10-21T15:02:59.004Z,12.00
2018-10-21T15:05:28.555Z,11.80
2018-10-21T15:07:57.670Z,11.70
2018-10-21T15:10:26.807Z,11.60
2018-10-21T15:12:55.461Z,11.30
2018-10-21T15:15:25.814Z,11.20
2018-10-21T15:17:55.085Z,11.00
2018-10-21T15:20:24.432Z,10.90
2018-10-21T15:22:53.212Z,10.70
2018-10-21T15:25:22.638Z,10.50
2018-10-21T15:27:52.991Z,10.40
2018-10-21T15:30:22.738Z,10.30
2018-10-21T15:32:51.292Z,10.10
2018-10-21T15:35:20.167Z,10.00
2018-10-21T15:37:50.069Z,9.90
2018-10-21T15:40:18.728Z,9.80
2018-10-21T15:42:47.288Z,9.70
2018-10-21T15:45:15.735Z,9.60
2018-10-21T15:47:43.925Z,9.50
2018-10-21T15:50:12.202Z,9.40
2018-10-21T15:52:40.365Z,9.30
2018-10-21T15:55:09.144Z,9.20
2018-10-21T15:57:37.331Z,9.10
2018-10-21T16:00:08.027Z,9.00
2018-10-21T16:02:36.794Z,9.00
2018-10-21T16:05:05.276Z,8.90
2018-10-21T16:07:33.509Z,8.80
2018-10-21T16:10:01.932Z,8.70
2018-10-21T16:12:30.151Z,8.60
2018-10-21T16:14:58.367Z,8.50
2018-10-21T16:17:26.566Z,8.30
2018-10-21T16:19:54.750Z,8.20
2018-10-21T16:22:22.942Z,8.10
2018-10-21T16:24:51.320Z,8.00
2018-10-21T16:27:19.548Z,7.90
2018-10-21T16:29:47.955Z,7.80
2018-10-21T16:32:16.137Z,7.70
2018-10-21T16:34:44.727Z,7.60
2018-10-21T16:37:12.937Z,7.50
2018-10-21T16:39:41.364Z,7.40
2018-10-21T16:42:09.788Z,7.30
2018-10-21T16:44:37.996Z,7.20
2018-10-21T16:47:06.276Z,7.10
2018-10-21T16:49:34.514Z,7.00
2018-10-21T16:52:02.718Z,6.90
2018-10-21T16:54:30.967Z,6.80
2018-10-21T16:56:59.192Z,6.70
2018-10-21T16:59:27.517Z,6.60
2018-10-21T17:01:55.602Z,6.50
2018-10-21T17:04:23.794Z,6.40
2018-10-21T17:06:51.983Z,6.30
2018-10-21T17:09:20.317Z,6.20
2018-10-21T17:11:48.411Z,6.20
2018-10-21T17:14:16.655Z,6.10
2018-10-21T17:16:44.875Z,6.00
2018-10-21T17:19:13.162Z,5.90
2018-10-21T17:21:41.503Z,5.90
2018-10-21T17:24:09.731Z,5.80
2018-10-21T17:26:38.139Z,5.70
2018-10-21T17:29:06.407Z,5.60
2018-10-21T17:31:34.667Z,5.60
2018-10-21T17:34:02.922Z,5.50
2018-10-21T17:36:31.113Z,5.40
2018-10-21T17:38:59.582Z,5.40
2018-10-21T17:41:27.771Z,5.30
2018-10-21T17:43:56.196Z,5.20
2018-10-21T17:46:24.426Z,5.20
2018-10-21T17:48:52.602Z,5.10
2018-10-21T17:51:20.787Z,5.10
2018-10-21T17:53:48.990Z,5.00
2018-10-21T17:56:17.174Z,5.00
2018-10-21T17:58:45.401Z,4.90
2018-10-21T18:01:13.662Z,4.90
2018-10-21T18:03:41.840Z,4.80
2018-10-21T18:06:10.047Z,4.70
2018-10-21T18:08:38.274Z,4.70
2018-10-21T18:11:06.817Z,4.60
2018-10-21T18:13:35.233Z,4.60
2018-10-21T18:16:03.488Z,4.50
2018-10-21T18:18:32.230Z,4.50
2018-10-21T18:21:00.460Z,4.40
2018-10-21T18:23:28.662Z,4.40
2018-10-21T18:25:57.179Z,4.30
2018-10-21T18:28:25.336Z,4.20
2018-10-21T18:30:53.543Z,4.20
2018-10-21T18:33:21.751Z,4.20
2018-10-21T18:35:49.934Z,4.10
2018-10-21T18:38:18.132Z,4.10
2018-10-21T18:40:46.531Z,4.10
2018-10-21T18:43:14.608Z,4.00
2018-10-21T18:45:43.032Z,4.00
2018-10-21T18:48:11.228Z,3.90
2018-10-21T18:50:39.435Z,3.80
2018-10-21T18:53:07.637Z,3.80
2018-10-21T18:55:36.019Z,3.70
2018-10-21T18:58:04.381Z,3.70
2018-10-21T19:00:32.576Z,3.60
2018-10-21T19:03:00.799Z,3.60
2018-10-21T19:05:29.027Z,3.60
2018-10-21T19:07:57.645Z,3.50
2018-10-21T19:10:25.908Z,3.40
2018-10-21T19:13:00.049Z,3.30
2018-10-21T19:15:22.546Z,3.30
2018-10-21T19:17:50.722Z,3.20
2018-10-21T19:20:36.896Z,3.20
2018-10-21T19:23:05.432Z,3.20
2018-10-21T19:25:33.633Z,3.20
2018-10-21T19:28:01.845Z,3.20
2018-10-21T19:30:30.024Z,3.10
2018-10-21T19:32:58.214Z,3.10
2018-10-21T19:35:26.656Z,3.20
2018-10-21T19:37:54.885Z,3.10
2018-10-21T19:40:23.081Z,3.10
2018-10-21T19:42:52.294Z,3.10
2018-10-21T19:45:20.494Z,3.10
2018-10-21T19:47:48.767Z,3.10
2018-10-21T19:50:17.370Z,3.00
2018-10-21T19:52:45.674Z,3.00
2018-10-21T19:55:14.053Z,2.90
2018-10-21T19:57:42.761Z,2.90
2018-10-21T20:00:13.622Z,2.80
2018-10-21T20:02:42.275Z,2.80
2018-10-21T20:05:10.743Z,2.80
2018-10-21T20:07:38.959Z,2.80
2018-10-21T20:10:09.340Z,2.70
2018-10-21T20:12:38.136Z,2.70
2018-10-21T20:15:07.474Z,2.70
2018-10-21T20:17:35.722Z,2.70
2018-10-21T20:20:03.988Z,2.60
2018-10-21T20:22:32.237Z,2.60
2018-10-21T20:25:00.502Z,2.50
2018-10-21T20:27:28.711Z,2.50
2018-10-21T20:29:56.951Z,2.50
2018-10-21T20:32:25.583Z,2.50
2018-10-21T20:34:53.869Z,2.40
2018-10-21T20:37:22.435Z,2.40
2018-10-21T20:39:50.684Z,2.40
2018-10-21T20:42:19.035Z,2.30
2018-10-21T20:44:47.252Z,2.20
2018-10-21T20:47:16.099Z,2.10
2018-10-21T20:49:44.305Z,2.10
2018-10-21T20:52:13.092Z,2.00
2018-10-21T20:54:47.290Z,2.00
2018-10-21T20:57:15.594Z,1.90
2018-10-21T20:59:45.236Z,1.90
2018-10-21T21:02:14.323Z,1.90
2018-10-21T21:04:42.518Z,1.90
2018-10-21T21:07:11.070Z,1.80
2018-10-21T21:09:39.976Z,1.70
2018-10-21T21:12:08.236Z,1.60
2018-10-21T21:14:36.452Z,1.60
2018-10-21T21:17:05.048Z,1.60
2018-10-21T21:19:33.689Z,1.50
2018-10-21T21:22:02.007Z,1.60
2018-10-21T21:24:30.118Z,1.60
2018-10-21T21:26:58.346Z,1.50
2018-10-21T21:29:26.595Z,1.50
2018-10-21T21:31:54.814Z,1.50
2018-10-21T21:34:22.995Z,1.50
2018-10-21T21:36:51.437Z,1.30
2018-10-21T21:39:21.679Z,1.20
2018-10-21T21:41:50.108Z,1.10
2018-10-21T21:44:18.303Z,1.10
2018-10-21T21:46:47.354Z,1.10
2018-10-21T21:49:15.711Z,1.10
2018-10-21T21:51:43.958Z,1.10
2018-10-21T21:54:13.590Z,1.10
2018-10-21T21:56:42.432Z,1.10
2018-10-21T21:59:10.671Z,1.10
2018-10-21T22:01:39.216Z,1.20
2018-10-21T22:04:07.889Z,1.20
2018-10-21T22:06:36.299Z,1.10
2018-10-21T22:09:08.790Z,1.00
2018-10-21T22:11:37.350Z,1.00
2018-10-21T22:14:06.247Z,0.90
2018-10-21T22:16:34.503Z,0.90
2018-10-21T22:19:02.996Z,0.90
2018-10-21T22:21:31.475Z,0.90
2018-10-21T22:23:59.995Z,0.90
2018-10-21T22:26:28.427Z,0.90
2018-10-21T22:28:56.906Z,0.90
2018-10-21T22:31:25.278Z,0.80
2018-10-21T22:33:53.509Z,0.80
2018-10-21T22:36:21.779Z,0.80
2018-10-21T22:38:50.028Z,0.70
2018-10-21T22:41:18.706Z,0.70
2018-10-21T22:43:46.956Z,0.80
2018-10-21T22:46:15.325Z,0.70
2018-10-21T22:48:43.487Z,0.70
2018-10-21T22:51:11.693Z,0.70
2018-10-21T22:53:39.923Z,0.70
2018-10-21T22:56:08.102Z,0.70
2018-10-21T22:58:36.313Z,0.70
2018-10-21T23:01:04.940Z,0.70
2018-10-21T23:03:33.155Z,0.70
2018-10-21T23:06:01.389Z,0.60
2018-10-21T23:08:29.563Z,0.60
2018-10-21T23:10:57.991Z,0.60
2018-10-21T23:13:26.178Z,0.50
2018-10-21T23:15:54.414Z,0.40
2018-10-21T23:18:22.593Z,0.40
2018-10-21T23:20:50.803Z,0.30
2018-10-21T23:23:19.024Z,0.30
2018-10-21T23:25:47.238Z,0.40
2018-10-21T23:28:15.537Z,0.40
2018-10-21T23:30:44.283Z,0.40
2018-10-21T23:33:12.480Z,0.30
2018-10-21T23:35:40.689Z,0.30
2018-10-21T23:38:09.149Z,0.30
2018-10-21T23:40:37.566Z,0.40
2018-10-21T23:43:05.768Z,0.40
2018-10-21T23:45:33.972Z,0.40
2018-10-21T23:48:02.182Z,0.40
2018-10-21T23:50:30.352Z,0.30
2018-10-21T23:52:58.555Z,0.30
2018-10-21T23:55:26.748Z,0.30
2018-10-21T23:57:54.954Z,0.20
